sensor_id;sensor_type;location;lat;lon;timestamp;P1;durP1;ratioP1;P2;durP2;ratioP2
49980;SDS011;35871;51.594;7.138;2022-07-22T07:06:20;2.28;;;1.27;;
49980;SDS011;35871;51.594;7.138;2022-07-22T07:11:21;3.33;;;1.48;;
49980;SDS011;35871;51.594;7.138;2022-07-22T07:16:22;4.10;;;1.88;;
49980;SDS011;35871;51.594;7.138;2022-07-22T07:21:23;4.85;;;1.25;;
49980;SDS011;35871;51.594;7.138;2022-07-22T07:26:25;4.15;;;1.75;;
49980;SDS011;35871;51.594;7.138;2022-07-22T07:31:26;2.95;;;1.83;;
49980;SDS011;35871;51.594;7.138;2022-07-22T07:36:27;3.85;;;1.80;;
49980;SDS011;35871;51.594;7.138;2022-07-22T07:41:28;3.03;;;1.67;;
49980;SDS011;35871;51.594;7.138;2022-07-22T07:46:29;5.18;;;1.58;;
49980;SDS011;35871;51.594;7.138;2022-07-22T07:51:30;1.75;;;1.20;;
49980;SDS011;35871;51.594;7.138;2022-07-22T07:56:31;5.13;;;1.70;;
49980;SDS011;35871;51.594;7.138;2022-07-22T08:01:32;5.03;;;1.60;;
49980;SDS011;35871;51.594;7.138;2022-07-22T08:06:33;4.45;;;1.40;;
49980;SDS011;35871;51.594;7.138;2022-07-22T08:11:34;6.80;;;1.70;;
49980;SDS011;35871;51.594;7.138;2022-07-22T08:16:35;3.63;;;1.50;;
49980;SDS011;35871;51.594;7.138;2022-07-22T08:21:36;3.50;;;1.77;;
49980;SDS011;35871;51.594;7.138;2022-07-22T08:26:38;4.20;;;1.80;;
49980;SDS011;35871;51.594;7.138;2022-07-22T08:31:39;3.10;;;1.80;;
49980;SDS011;35871;51.594;7.138;2022-07-22T08:36:40;2.30;;;1.70;;
49980;SDS011;35871;51.594;7.138;2022-07-22T08:41:41;4.45;;;1.67;;
49980;SDS011;35871;51.594;7.138;2022-07-22T08:46:43;4.70;;;2.30;;
49980;SDS011;35871;51.594;7.138;2022-07-22T08:51:44;3.72;;;2.60;;
49980;SDS011;35871;51.594;7.138;2022-07-22T08:56:46;3.60;;;2.30;;
49980;SDS011;35871;51.594;7.138;2022-07-22T09:02:00;8.48;;;2.75;;
49980;SDS011;35871;51.594;7.138;2022-07-22T09:07:01;4.15;;;3.10;;
49980;SDS011;35871;51.594;7.138;2022-07-22T09:12:03;5.03;;;2.67;;
49980;SDS011;35871;51.594;7.138;2022-07-22T09:17:04;5.45;;;2.20;;
49980;SDS011;35871;51.594;7.138;2022-07-22T09:22:07;6.43;;;2.70;;
49980;SDS011;35871;51.594;7.138;2022-07-22T09:27:09;5.72;;;2.30;;
49980;SDS011;35871;51.594;7.138;2022-07-22T09:32:10;4.18;;;2.25;;
49980;SDS011;35871;51.594;7.138;2022-07-22T09:37:11;5.25;;;2.42;;
49980;SDS011;35871;51.594;7.138;2022-07-22T09:42:13;5.93;;;2.20;;
49980;SDS011;35871;51.594;7.138;2022-07-22T09:47:28;3.95;;;2.00;;
49980;SDS011;35871;51.594;7.138;2022-07-22T09:52:29;5.07;;;2.00;;
49980;SDS011;35871;51.594;7.138;2022-07-22T09:57:31;4.65;;;1.85;;
49980;SDS011;35871;51.594;7.138;2022-07-22T10:03:06;6.50;;;2.33;;
49980;SDS011;35871;51.594;7.138;2022-07-22T10:08:00;4.60;;;1.88;;
49980;SDS011;35871;51.594;7.138;2022-07-22T10:13:02;2.83;;;2.28;;
49980;SDS011;35871;51.594;7.138;2022-07-22T10:18:04;3.65;;;2.05;;
49980;SDS011;35871;51.594;7.138;2022-07-22T10:23:08;3.47;;;1.92;;
49980;SDS011;35871;51.594;7.138;2022-07-22T10:28:10;6.63;;;2.88;;
49980;SDS011;35871;51.594;7.138;2022-07-22T10:33:20;6.57;;;3.63;;
49980;SDS011;35871;51.594;7.138;2022-07-22T10:38:22;5.82;;;3.67;;
49980;SDS011;35871;51.594;7.138;2022-07-22T10:58:57;5.67;;;2.90;;
49980;SDS011;35871;51.594;7.138;2022-07-22T11:09:38;6.13;;;3.55;;
49980;SDS011;35871;51.594;7.138;2022-07-22T11:14:39;8.55;;;4.97;;
49980;SDS011;35871;51.594;7.138;2022-07-22T11:19:40;5.35;;;4.40;;
49980;SDS011;35871;51.594;7.138;2022-07-22T11:24:42;6.28;;;4.15;;
49980;SDS011;35871;51.594;7.138;2022-07-22T11:29:43;7.15;;;4.00;;
49980;SDS011;35871;51.594;7.138;2022-07-22T11:35:13;7.38;;;4.80;;
49980;SDS011;35871;51.594;7.138;2022-07-22T11:40:14;4.97;;;4.47;;
49980;SDS011;35871;51.594;7.138;2022-07-22T11:45:15;6.60;;;4.65;;
49980;SDS011;35871;51.594;7.138;2022-07-22T11:50:16;6.03;;;4.10;;
49980;SDS011;35871;51.594;7.138;2022-07-22T11:55:17;5.55;;;4.35;;
49980;SDS011;35871;51.594;7.138;2022-07-22T12:00:18;5.60;;;3.65;;
49980;SDS011;35871;51.594;7.138;2022-07-22T12:05:20;6.80;;;4.50;;
49980;SDS011;35871;51.594;7.138;2022-07-22T12:10:21;4.82;;;3.88;;
49980;SDS011;35871;51.594;7.138;2022-07-22T12:15:22;4.88;;;3.72;;
49980;SDS011;35871;51.594;7.138;2022-07-22T12:20:26;5.22;;;4.10;;
49980;SDS011;35871;51.594;7.138;2022-07-22T12:25:27;8.80;;;6.15;;
49980;SDS011;35871;51.594;7.138;2022-07-22T12:30:28;6.80;;;5.43;;
49980;SDS011;35871;51.594;7.138;2022-07-22T12:35:29;7.10;;;6.15;;
49980;SDS011;35871;51.594;7.138;2022-07-22T12:40:30;7.15;;;5.60;;
49980;SDS011;35871;51.594;7.138;2022-07-22T12:45:32;9.60;;;8.10;;
49980;SDS011;35871;51.594;7.138;2022-07-22T12:50:41;8.73;;;6.35;;
49980;SDS011;35871;51.594;7.138;2022-07-22T12:55:49;6.85;;;5.93;;
49980;SDS011;35871;51.594;7.138;2022-07-22T13:00:55;7.53;;;6.78;;
49980;SDS011;35871;51.594;7.138;2022-07-22T13:05:57;6.57;;;5.60;;
49980;SDS011;35871;51.594;7.138;2022-07-22T13:10:59;8.27;;;6.05;;
49980;SDS011;35871;51.594;7.138;2022-07-22T13:16:00;16.95;;;15.38;;
49980;SDS011;35871;51.594;7.138;2022-07-22T13:21:01;7.57;;;6.85;;
49980;SDS011;35871;51.594;7.138;2022-07-22T13:26:03;15.70;;;13.93;;
49980;SDS011;35871;51.594;7.138;2022-07-22T13:31:04;10.63;;;9.50;;
49980;SDS011;35871;51.594;7.138;2022-07-22T13:36:05;9.13;;;8.23;;
49980;SDS011;35871;51.594;7.138;2022-07-22T13:41:06;9.32;;;8.40;;
49980;SDS011;35871;51.594;7.138;2022-07-22T13:46:17;9.25;;;7.55;;
49980;SDS011;35871;51.594;7.138;2022-07-22T13:51:18;8.27;;;7.25;;
49980;SDS011;35871;51.594;7.138;2022-07-22T13:56:19;8.63;;;7.82;;
49980;SDS011;35871;51.594;7.138;2022-07-22T14:01:20;9.30;;;7.13;;
49980;SDS011;35871;51.594;7.138;2022-07-22T14:06:22;9.65;;;7.07;;
49980;SDS011;35871;51.594;7.138;2022-07-22T14:11:23;7.63;;;6.25;;
49980;SDS011;35871;51.594;7.138;2022-07-22T14:16:24;7.70;;;6.70;;
49980;SDS011;35871;51.594;7.138;2022-07-22T14:21:34;6.88;;;6.15;;
49980;SDS011;35871;51.594;7.138;2022-07-22T14:26:36;6.78;;;6.10;;
49980;SDS011;35871;51.594;7.138;2022-07-22T14:31:37;9.38;;;6.80;;
49980;SDS011;35871;51.594;7.138;2022-07-22T14:36:38;8.45;;;7.63;;
49980;SDS011;35871;51.594;7.138;2022-07-22T14:41:39;8.93;;;8.02;;
49980;SDS011;35871;51.594;7.138;2022-07-22T14:46:40;9.13;;;7.82;;
49980;SDS011;35871;51.594;7.138;2022-07-22T14:51:41;8.82;;;7.50;;
49980;SDS011;35871;51.594;7.138;2022-07-22T14:56:43;8.80;;;7.38;;
49980;SDS011;35871;51.594;7.138;2022-07-22T15:01:44;7.95;;;7.15;;
49980;SDS011;35871;51.594;7.138;2022-07-22T15:06:45;7.95;;;6.15;;
49980;SDS011;35871;51.594;7.138;2022-07-22T15:11:46;9.38;;;5.78;;
49980;SDS011;35871;51.594;7.138;2022-07-22T15:16:47;6.78;;;6.18;;
49980;SDS011;35871;51.594;7.138;2022-07-22T15:21:48;7.03;;;6.35;;
49980;SDS011;35871;51.594;7.138;2022-07-22T15:26:49;8.40;;;6.50;;
49980;SDS011;35871;51.594;7.138;2022-07-22T15:31:50;7.35;;;6.25;;
49980;SDS011;35871;51.594;7.138;2022-07-22T15:36:51;6.18;;;5.57;;
49980;SDS011;35871;51.594;7.138;2022-07-22T15:41:52;7.32;;;5.45;;
49980;SDS011;35871;51.594;7.138;2022-07-22T15:46:54;5.45;;;4.90;;
49980;SDS011;35871;51.594;7.138;2022-07-22T15:51:55;5.80;;;4.97;;
49980;SDS011;35871;51.594;7.138;2022-07-22T15:56:56;6.57;;;4.85;;
49980;SDS011;35871;51.594;7.138;2022-07-22T16:02:17;6.60;;;4.78;;
49980;SDS011;35871;51.594;7.138;2022-07-22T16:07:18;6.65;;;4.80;;
49980;SDS011;35871;51.594;7.138;2022-07-22T16:12:19;5.85;;;4.72;;
49980;SDS011;35871;51.594;7.138;2022-07-22T16:17:20;7.55;;;4.90;;
49980;SDS011;35871;51.594;7.138;2022-07-22T16:22:21;6.00;;;5.15;;
49980;SDS011;35871;51.594;7.138;2022-07-22T16:27:22;7.13;;;6.00;;
49980;SDS011;35871;51.594;7.138;2022-07-22T16:32:23;6.35;;;5.55;;
49980;SDS011;35871;51.594;7.138;2022-07-22T16:37:24;7.97;;;6.38;;
49980;SDS011;35871;51.594;7.138;2022-07-22T16:42:25;4.85;;;4.13;;
49980;SDS011;35871;51.594;7.138;2022-07-22T16:47:26;4.82;;;4.15;;
49980;SDS011;35871;51.594;7.138;2022-07-22T16:52:29;8.05;;;7.00;;
49980;SDS011;35871;51.594;7.138;2022-07-22T16:57:30;4.88;;;4.05;;
49980;SDS011;35871;51.594;7.138;2022-07-22T17:02:32;7.00;;;4.53;;
49980;SDS011;35871;51.594;7.138;2022-07-22T17:07:33;4.45;;;4.00;;
49980;SDS011;35871;51.594;7.138;2022-07-22T17:12:34;7.93;;;4.32;;
49980;SDS011;35871;51.594;7.138;2022-07-22T17:17:36;5.28;;;3.47;;
49980;SDS011;35871;51.594;7.138;2022-07-22T17:22:40;3.85;;;3.45;;
49980;SDS011;35871;51.594;7.138;2022-07-22T17:27:42;4.10;;;3.60;;
49980;SDS011;35871;51.594;7.138;2022-07-22T17:32:43;4.85;;;3.40;;
49980;SDS011;35871;51.594;7.138;2022-07-22T17:37:44;3.60;;;3.30;;
49980;SDS011;35871;51.594;7.138;2022-07-22T17:42:45;3.80;;;3.10;;
49980;SDS011;35871;51.594;7.138;2022-07-22T17:47:46;3.65;;;3.35;;
49980;SDS011;35871;51.594;7.138;2022-07-22T17:52:47;5.40;;;3.70;;
49980;SDS011;35871;51.594;7.138;2022-07-22T17:57:49;3.42;;;3.05;;
49980;SDS011;35871;51.594;7.138;2022-07-22T18:02:50;5.65;;;2.75;;
49980;SDS011;35871;51.594;7.138;2022-07-22T18:07:52;4.80;;;2.92;;
49980;SDS011;35871;51.594;7.138;2022-07-22T18:12:55;4.30;;;2.80;;
49980;SDS011;35871;51.594;7.138;2022-07-22T18:18:06;4.35;;;3.30;;
49980;SDS011;35871;51.594;7.138;2022-07-22T18:23:26;3.63;;;2.92;;
49980;SDS011;35871;51.594;7.138;2022-07-22T18:28:27;3.58;;;3.00;;
49980;SDS011;35871;51.594;7.138;2022-07-22T18:33:29;3.05;;;2.63;;
49980;SDS011;35871;51.594;7.138;2022-07-22T18:38:30;3.30;;;2.70;;
49980;SDS011;35871;51.594;7.138;2022-07-22T18:43:35;4.63;;;2.55;;
49980;SDS011;35871;51.594;7.138;2022-07-22T18:48:37;3.47;;;2.60;;
49980;SDS011;35871;51.594;7.138;2022-07-22T18:53:38;3.67;;;2.67;;
49980;SDS011;35871;51.594;7.138;2022-07-22T18:58:42;4.82;;;3.17;;
49980;SDS011;35871;51.594;7.138;2022-07-22T19:03:43;3.40;;;3.00;;
49980;SDS011;35871;51.594;7.138;2022-07-22T19:08:45;2.90;;;2.47;;
49980;SDS011;35871;51.594;7.138;2022-07-22T19:13:58;2.90;;;2.47;;
49980;SDS011;35871;51.594;7.138;2022-07-22T19:19:15;3.33;;;2.70;;
